Time;durP1;ratioP1;P1;durP2;ratioP2;P2;SDS_P1;SDS_P2;PMS_P1;PMS_P2;Temp;Humidity;BMP_temperature;BMP_pressure;BME280_temperature;BME280_humidity;BME280_pressure;Samples;Min_cycle;Max_cycle;Signal;HPM_P1;HPM_P2
2021/06/29 00:00:19;;;;;;;3.95;2.79;;;;;;;;;;343183;153;857390;-60
2021/06/29 00:01:20;;;;;;;7.90;3.14;;;;;;;;;;347794;152;857437;-59
2021/06/29 00:02:23;;;;;;;7.01;3.53;;;;;;;;;;347518;151;858265;-59
2021/06/29 00:03:25;;;;;;;5.18;3.26;;;;;;;;;;347196;154;857334;-60
2021/06/29 00:04:26;;;;;;;5.94;3.59;;;;;;;;;;348109;152;857999;-60
2021/06/29 00:05:30;;;;;;;5.89;3.23;;;;;;;;;;347945;151;857378;-60
2021/06/29 00:06:33;;;;;;;3.91;3.39;;;;;;;;;;339806;155;857962;-60
2021/06/29 00:07:34;;;;;;;3.71;2.94;;;;;;;;;;345592;154;857661;-59
2021/06/29 00:08:36;;;;;;;4.07;3.39;;;;;;;;;;348934;152;857568;-59
2021/06/29 00:09:37;;;;;;;6.79;3.43;;;;;;;;;;345237;153;857468;-60
2021/06/29 00:10:39;;;;;;;4.95;2.97;;;;;;;;;;345710;153;859135;-60
2021/06/29 00:11:42;;;;;;;4.47;3.27;;;;;;;;;;344527;153;858958;-59
2021/06/29 00:12:43;;;;;;;6.39;3.12;;;;;;;;;;347568;152;859157;-60
2021/06/29 00:13:45;;;;;;;6.03;3.24;;;;;;;;;;348130;153;859012;-60
2021/06/29 00:14:46;;;;;;;4.56;3.05;;;;;;;;;;347011;154;858198;-60
2021/06/29 00:15:48;;;;;;;4.53;3.44;;;;;;;;;;347072;153;857396;-60
2021/06/29 00:16:50;;;;;;;6.47;3.17;;;;;;;;;;344650;153;858326;-60
2021/06/29 00:17:52;;;;;;;5.56;3.22;;;;;;;;;;348088;153;857304;-60
2021/06/29 00:18:53;;;;;;;6.89;3.36;;;;;;;;;;346526;154;864859;-60
2021/06/29 00:19:55;;;;;;;4.33;2.92;;;;;;;;;;343777;152;857446;-60
2021/06/29 00:20:57;;;;;;;3.65;3.27;;;;;;;;;;342354;154;857402;-59
2021/06/29 00:21:58;;;;;;;4.19;2.94;;;;;;;;;;347610;152;857408;-60
2021/06/29 00:23:00;;;;;;;3.87;3.11;;;;;;;;;;347299;152;859107;-60
2021/06/29 00:24:01;;;;;;;3.59;3.17;;;;;;;;;;348565;153;858229;-59
2021/06/29 00:25:03;;;;;;;6.95;3.07;;;;;;;;;;347234;154;857824;-59
2021/06/29 00:26:06;;;;;;;4.76;3.15;;;;;;;;;;347998;152;858355;-60
2021/06/29 00:27:07;;;;;;;5.52;2.99;;;;;;;;;;348326;154;858812;-60
2021/06/29 00:28:09;;;;;;;7.83;3.60;;;;;;;;;;344342;154;857382;-60
2021/06/29 00:29:11;;;;;;;4.48;3.04;;;;;;;;;;347580;153;857380;-59
2021/06/29 00:30:13;;;;;;;6.33;3.10;;;;;;;;;;347533;152;859208;-60
2021/06/29 00:31:15;;;;;;;5.07;3.47;;;;;;;;;;347584;154;859589;-60
2021/06/29 00:32:17;;;;;;;6.12;3.43;;;;;;;;;;346694;153;858985;-60
2021/06/29 00:33:18;;;;;;;4.79;3.48;;;;;;;;;;347174;153;857258;-60
2021/06/29 00:34:20;;;;;;;4.87;3.45;;;;;;;;;;346064;154;857335;-60
2021/06/29 00:35:21;;;;;;;6.96;3.76;;;;;;;;;;347919;153;857366;-60
2021/06/29 00:36:24;;;;;;;5.47;3.62;;;;;;;;;;347294;153;857285;-60
2021/06/29 00:37:26;;;;;;;8.41;3.54;;;;;;;;;;348442;152;857487;-60
2021/06/29 00:38:27;;;;;;;4.89;3.02;;;;;;;;;;347921;154;857376;-60
2021/06/29 00:39:29;;;;;;;4.01;3.51;;;;;;;;;;346664;153;865773;-60
2021/06/29 00:40:31;;;;;;;5.03;3.61;;;;;;;;;;347901;152;857437;-60
2021/06/29 00:41:33;;;;;;;6.77;3.56;;;;;;;;;;348265;154;857402;-60
2021/06/29 00:42:35;;;;;;;5.59;3.49;;;;;;;;;;347721;154;857566;-60
2021/06/29 00:43:36;;;;;;;5.25;3.53;;;;;;;;;;347898;152;857445;-60
2021/06/29 00:44:38;;;;;;;6.26;3.49;;;;;;;;;;348458;154;857429;-60
2021/06/29 00:45:40;;;;;;;4.87;3.19;;;;;;;;;;348562;152;858671;-60
2021/06/29 00:46:41;;;;;;;4.38;3.38;;;;;;;;;;347886;153;859688;-60
2021/06/29 00:47:43;;;;;;;4.49;3.29;;;;;;;;;;348295;152;858690;-60
2021/06/29 00:48:45;;;;;;;5.43;3.41;;;;;;;;;;350879;152;858436;-59
2021/06/29 00:49:46;;;;;;;7.64;3.33;;;;;;;;;;350671;152;857293;-59
2021/06/29 00:50:48;;;;;;;5.13;3.35;;;;;;;;;;343877;153;864853;-60
2021/06/29 00:51:50;;;;;;;8.67;3.33;;;;;;;;;;344880;154;857426;-60
2021/06/29 00:52:52;;;;;;;6.80;3.99;;;;;;;;;;343370;154;857307;-59
2021/06/29 00:53:53;;;;;;;3.89;3.32;;;;;;;;;;347866;153;857304;-60
2021/06/29 00:54:55;;;;;;;5.73;3.84;;;;;;;;;;348968;151;857329;-59
2021/06/29 00:55:57;;;;;;;3.76;3.31;;;;;;;;;;345832;151;857385;-59
2021/06/29 00:56:58;;;;;;;6.64;3.56;;;;;;;;;;347698;153;859172;-59
2021/06/29 00:58:00;;;;;;;5.84;3.51;;;;;;;;;;349207;151;859202;-59
2021/06/29 00:59:02;;;;;;;5.89;3.39;;;;;;;;;;349178;153;858202;-58
2021/06/29 01:00:07;;;;;;;6.45;3.53;;;;;;;;;;347908;153;860182;-59
2021/06/29 01:01:08;;;;;;;5.39;3.33;;;;;;;;;;348596;152;866724;-59
2021/06/29 01:02:10;;;;;;;3.82;3.31;;;;;;;;;;342330;154;857403;-59
2021/06/29 01:03:12;;;;;;;3.85;3.42;;;;;;;;;;348857;154;866232;-59
2021/06/29 01:04:13;;;;;;;4.79;3.35;;;;;;;;;;347147;152;859943;-59
2021/06/29 01:05:15;;;;;;;3.59;3.11;;;;;;;;;;348162;152;858753;-59
2021/06/29 01:06:17;;;;;;;9.08;3.53;;;;;;;;;;346931;154;857688;-59
2021/06/29 01:07:18;;;;;;;6.21;3.89;;;;;;;;;;348904;153;864809;-59
2021/06/29 01:08:20;;;;;;;4.42;3.41;;;;;;;;;;348615;152;857451;-59
2021/06/29 01:09:21;;;;;;;4.56;3.62;;;;;;;;;;344049;154;857256;-59
2021/06/29 01:10:24;;;;;;;8.67;3.71;;;;;;;;;;343074;151;865733;-59
2021/06/29 01:11:26;;;;;;;4.12;3.33;;;;;;;;;;349907;152;858924;-59
2021/06/29 01:12:28;;;;;;;4.86;3.62;;;;;;;;;;349101;151;859193;-59
2021/06/29 01:13:34;;;;;;;5.64;3.05;;;;;;;;;;349089;154;865731;-59
2021/06/29 01:14:35;;;;;;;6.72;3.36;;;;;;;;;;348012;153;857570;-59
2021/06/29 01:15:37;;;;;;;5.46;3.73;;;;;;;;;;348095;151;857465;-59
2021/06/29 01:16:39;;;;;;;6.72;2.94;;;;;;;;;;344529;151;857524;-59
2021/06/29 01:17:41;;;;;;;5.39;3.86;;;;;;;;;;344480;151;857532;-59
2021/06/29 01:18:43;;;;;;;4.17;3.63;;;;;;;;;;348362;151;864922;-59
2021/06/29 01:19:46;;;;;;;4.53;3.19;;;;;;;;;;349070;153;857331;-59
2021/06/29 01:20:48;;;;;;;4.32;3.41;;;;;;;;;;348547;154;857179;-60
2021/06/29 01:21:52;;;;;;;4.79;3.67;;;;;;;;;;349103;152;857326;-59
2021/06/29 01:22:57;;;;;;;5.23;3.76;;;;;;;;;;348933;151;857361;-60
2021/06/29 01:23:58;;;;;;;4.86;3.58;;;;;;;;;;348758;154;859767;-59
2021/06/29 01:25:00;;;;;;;4.73;3.43;;;;;;;;;;347803;153;865120;-59
2021/06/29 01:26:11;;;;;;;5.84;3.84;;;;;;;;;;347580;152;857723;-59
2021/06/29 01:27:35;;;;;;;6.35;3.59;;;;;;;;;;347900;154;864934;-59
2021/06/29 01:28:22;;;;;;;7.56;3.63;;;;;;;;;;341023;153;864986;-59
2021/06/29 01:29:29;;;;;;;5.34;3.65;;;;;;;;;;345475;153;858277;-59
2021/06/29 01:31:27;;;;;;;3.92;3.53;;;;;;;;;;348341;153;858815;-59
2021/06/29 01:32:29;;;;;;;4.68;3.74;;;;;;;;;;347506;152;859092;-59
2021/06/29 01:33:30;;;;;;;5.04;3.64;;;;;;;;;;346289;153;866010;-59
2021/06/29 01:34:32;;;;;;;7.31;3.83;;;;;;;;;;347508;153;858856;-59
2021/06/29 01:35:34;;;;;;;4.61;3.89;;;;;;;;;;348682;153;857394;-59
2021/06/29 01:36:37;;;;;;;5.41;3.65;;;;;;;;;;348525;151;864987;-59
2021/06/29 01:37:39;;;;;;;5.57;3.70;;;;;;;;;;349442;153;857442;-59
2021/06/29 01:38:40;;;;;;;5.46;4.28;;;;;;;;;;348986;153;859084;-59
2021/06/29 01:39:49;;;;;;;8.89;4.14;;;;;;;;;;348417;151;865143;-59
2021/06/29 01:40:51;;;;;;;5.93;4.01;;;;;;;;;;348394;154;857803;-59
2021/06/29 01:41:52;;;;;;;4.94;3.70;;;;;;;;;;346936;154;857736;-59
2021/06/29 01:42:58;;;;;;;7.28;4.28;;;;;;;;;;348744;152;858999;-59
2021/06/29 01:44:03;;;;;;;6.71;3.84;;;;;;;;;;348689;153;865960;-59
2021/06/29 01:45:01;;;;;;;5.33;4.12;;;;;;;;;;347321;154;857458;-59
2021/06/29 01:46:03;;;;;;;4.60;4.08;;;;;;;;;;347876;152;857287;-60
2021/06/29 01:47:06;;;;;;;4.70;3.86;;;;;;;;;;348552;151;857262;-60
2021/06/29 01:48:17;;;;;;;6.40;3.81;;;;;;;;;;350080;153;857390;-59
2021/06/29 01:49:13;;;;;;;8.80;4.08;;;;;;;;;;348503;153;857772;-59
2021/06/29 01:50:18;;;;;;;6.84;3.94;;;;;;;;;;348627;151;857351;-59
2021/06/29 01:51:20;;;;;;;6.99;4.15;;;;;;;;;;349160;154;864873;-59
2021/06/29 01:52:21;;;;;;;6.97;4.08;;;;;;;;;;349522;153;859626;-59
2021/06/29 01:53:23;;;;;;;4.59;3.86;;;;;;;;;;348494;153;865926;-59
2021/06/29 01:54:25;;;;;;;5.91;3.78;;;;;;;;;;349126;151;858484;-59
2021/06/29 01:55:26;;;;;;;12.65;4.45;;;;;;;;;;348979;154;860823;-59
2021/06/29 01:56:32;;;;;;;4.98;3.80;;;;;;;;;;348975;153;857459;-60
2021/06/29 01:57:32;;;;;;;7.02;4.04;;;;;;;;;;348297;151;857589;-60
2021/06/29 01:58:34;;;;;;;12.81;4.43;;;;;;;;;;347180;153;858460;-60
2021/06/29 01:59:40;;;;;;;6.71;4.27;;;;;;;;;;348274;151;865610;-59
2021/06/29 02:00:40;;;;;;;7.87;4.24;;;;;;;;;;346103;151;858905;-60
2021/06/29 02:01:43;;;;;;;9.54;4.39;;;;;;;;;;349096;154;865443;-59
2021/06/29 02:02:45;;;;;;;6.75;3.94;;;;;;;;;;348993;154;857815;-60
2021/06/29 02:03:47;;;;;;;6.87;3.83;;;;;;;;;;347954;151;865253;-60
2021/06/29 02:04:49;;;;;;;10.22;4.33;;;;;;;;;;348318;151;857572;-60
2021/06/29 02:05:50;;;;;;;9.41;3.99;;;;;;;;;;343359;152;866802;-60
2021/06/29 02:06:52;;;;;;;6.47;4.20;;;;;;;;;;346296;151;857335;-59
2021/06/29 02:07:53;;;;;;;4.58;3.79;;;;;;;;;;347549;151;865820;-59
2021/06/29 02:08:55;;;;;;;4.52;3.53;;;;;;;;;;346066;153;859130;-59
2021/06/29 02:09:56;;;;;;;6.21;4.10;;;;;;;;;;349525;152;858199;-59
2021/06/29 02:10:58;;;;;;;7.69;4.69;;;;;;;;;;348189;151;864949;-59
2021/06/29 02:12:00;;;;;;;6.42;3.73;;;;;;;;;;349119;153;866486;-59
2021/06/29 02:13:01;;;;;;;4.65;3.85;;;;;;;;;;348834;154;858982;-59
2021/06/29 02:14:03;;;;;;;6.16;3.95;;;;;;;;;;346791;153;859430;-60
2021/06/29 02:15:05;;;;;;;5.11;3.61;;;;;;;;;;347809;151;864765;-60
2021/06/29 02:16:07;;;;;;;7.25;4.32;;;;;;;;;;347276;154;864895;-60
2021/06/29 02:17:09;;;;;;;6.82;4.03;;;;;;;;;;348554;152;859222;-59
2021/06/29 02:18:10;;;;;;;6.61;4.16;;;;;;;;;;348754;151;857381;-60
2021/06/29 02:19:12;;;;;;;10.06;4.53;;;;;;;;;;348338;153;864917;-59
2021/06/29 02:20:16;;;;;;;8.32;4.56;;;;;;;;;;349393;153;857254;-59
2021/06/29 02:21:18;;;;;;;6.08;4.14;;;;;;;;;;347921;153;857344;-59
2021/06/29 02:22:19;;;;;;;7.35;4.34;;;;;;;;;;347255;152;865929;-60
2021/06/29 02:23:21;;;;;;;9.87;4.54;;;;;;;;;;347910;154;858948;-59
2021/06/29 02:24:23;;;;;;;5.86;4.21;;;;;;;;;;346151;153;859788;-59
2021/06/29 02:25:24;;;;;;;9.39;4.58;;;;;;;;;;348555;151;858266;-58
2021/06/29 02:26:26;;;;;;;5.59;4.17;;;;;;;;;;348700;153;857364;-57
2021/06/29 02:27:30;;;;;;;4.34;3.80;;;;;;;;;;347861;153;857912;-59
2021/06/29 02:28:32;;;;;;;7.94;4.28;;;;;;;;;;347436;152;857614;-61
2021/06/29 02:29:34;;;;;;;5.72;4.08;;;;;;;;;;349468;151;859118;-61
2021/06/29 02:30:36;;;;;;;6.35;4.06;;;;;;;;;;348973;153;857475;-61
2021/06/29 02:31:38;;;;;;;5.09;3.99;;;;;;;;;;347358;152;857461;-61
2021/06/29 02:32:39;;;;;;;7.43;4.14;;;;;;;;;;348542;152;865017;-60
2021/06/29 02:33:41;;;;;;;8.24;3.92;;;;;;;;;;348636;153;857388;-59
2021/06/29 02:34:42;;;;;;;6.88;4.16;;;;;;;;;;348109;153;857387;-59
2021/06/29 02:35:44;;;;;;;10.42;4.76;;;;;;;;;;347633;151;857257;-58
2021/06/29 02:36:46;;;;;;;6.45;3.97;;;;;;;;;;342401;156;859568;-58
2021/06/29 02:37:47;;;;;;;7.33;4.47;;;;;;;;;;343306;153;857903;-59
2021/06/29 02:38:49;;;;;;;4.76;4.31;;;;;;;;;;347976;153;857328;-59
2021/06/29 02:39:51;;;;;;;9.17;4.87;;;;;;;;;;348407;151;857366;-59
2021/06/29 02:40:53;;;;;;;5.79;4.24;;;;;;;;;;348608;154;866735;-59
2021/06/29 02:41:54;;;;;;;4.58;4.13;;;;;;;;;;347722;153;866606;-59
2021/06/29 02:42:56;;;;;;;5.71;4.35;;;;;;;;;;349164;153;857404;-59
2021/06/29 02:43:57;;;;;;;4.91;3.96;;;;;;;;;;348801;153;857501;-59
2021/06/29 02:45:05;;;;;;;7.90;3.92;;;;;;;;;;346877;152;857442;-59
2021/06/29 02:46:03;;;;;;;5.92;4.26;;;;;;;;;;348463;151;859642;-60
2021/06/29 02:47:04;;;;;;;5.63;3.77;;;;;;;;;;348418;153;864751;-57
2021/06/29 02:48:06;;;;;;;7.14;4.52;;;;;;;;;;348980;153;859062;-60
2021/06/29 02:49:08;;;;;;;5.33;4.17;;;;;;;;;;347405;152;859536;-60
2021/06/29 02:50:10;;;;;;;6.51;3.89;;;;;;;;;;348438;152;858286;-59
2021/06/29 02:51:13;;;;;;;8.13;4.15;;;;;;;;;;346332;153;857494;-58
2021/06/29 02:52:14;;;;;;;5.33;4.23;;;;;;;;;;348484;153;858687;-59
2021/06/29 02:53:16;;;;;;;5.31;4.04;;;;;;;;;;348820;151;860050;-61
2021/06/29 02:54:17;;;;;;;7.84;4.24;;;;;;;;;;348415;153;857952;-59
2021/06/29 02:55:19;;;;;;;5.09;4.09;;;;;;;;;;347923;154;857395;-59
2021/06/29 02:56:39;;;;;;;6.10;4.06;;;;;;;;;;348035;154;857812;-59
2021/06/29 02:57:41;;;;;;;6.21;3.79;;;;;;;;;;348064;153;864222;-59
2021/06/29 02:58:43;;;;;;;12.31;3.82;;;;;;;;;;346338;153;858097;-60
2021/06/29 02:59:44;;;;;;;6.26;3.86;;;;;;;;;;347007;152;866777;-60
2021/06/29 03:00:46;;;;;;;4.83;3.74;;;;;;;;;;348301;154;857596;-61
2021/06/29 03:01:48;;;;;;;5.27;3.98;;;;;;;;;;348342;154;864929;-61
2021/06/29 03:02:49;;;;;;;6.73;3.96;;;;;;;;;;347812;152;858707;-60
2021/06/29 03:03:51;;;;;;;5.75;4.17;;;;;;;;;;348756;151;859363;-60
2021/06/29 03:04:52;;;;;;;11.17;4.36;;;;;;;;;;348589;153;857359;-59
2021/06/29 03:05:54;;;;;;;6.45;3.83;;;;;;;;;;345619;152;857464;-60
2021/06/29 03:06:56;;;;;;;7.70;4.62;;;;;;;;;;348394;153;857683;-59
2021/06/29 03:07:57;;;;;;;6.20;4.11;;;;;;;;;;348516;151;867157;-59
2021/06/29 03:08:59;;;;;;;9.74;4.35;;;;;;;;;;347677;154;857341;-59
2021/06/29 03:10:01;;;;;;;6.99;3.73;;;;;;;;;;346163;153;859099;-60
2021/06/29 03:11:03;;;;;;;7.97;4.61;;;;;;;;;;346682;154;857376;-60
2021/06/29 03:12:05;;;;;;;6.80;4.48;;;;;;;;;;343298;157;858654;-60
2021/06/29 03:13:07;;;;;;;7.32;4.23;;;;;;;;;;348975;151;857988;-59
2021/06/29 03:14:08;;;;;;;6.17;3.67;;;;;;;;;;348973;153;858795;-60
2021/06/29 03:15:10;;;;;;;6.48;4.13;;;;;;;;;;348158;152;857372;-59
2021/06/29 03:16:12;;;;;;;5.61;4.01;;;;;;;;;;350145;152;864860;-59
2021/06/29 03:17:15;;;;;;;6.93;4.06;;;;;;;;;;348651;151;857329;-59
2021/06/29 03:18:22;;;;;;;8.69;3.83;;;;;;;;;;348197;152;857391;-59
2021/06/29 03:19:20;;;;;;;7.39;4.02;;;;;;;;;;348100;154;857420;-60
2021/06/29 03:20:22;;;;;;;6.55;3.43;;;;;;;;;;349901;151;858723;-60
2021/06/29 03:21:24;;;;;;;8.80;4.05;;;;;;;;;;348142;152;857344;-60
2021/06/29 03:22:25;;;;;;;5.23;3.66;;;;;;;;;;348061;154;857449;-60
2021/06/29 03:23:27;;;;;;;5.36;3.78;;;;;;;;;;350507;151;857368;-59
2021/06/29 03:24:29;;;;;;;6.04;3.58;;;;;;;;;;349614;152;866628;-59
2021/06/29 03:25:30;;;;;;;8.65;3.76;;;;;;;;;;349704;152;866209;-59
2021/06/29 03:26:32;;;;;;;6.02;3.65;;;;;;;;;;352273;152;857435;-61
2021/06/29 03:27:34;;;;;;;6.12;4.05;;;;;;;;;;348506;151;857568;-61
2021/06/29 03:28:35;;;;;;;5.08;3.90;;;;;;;;;;349134;154;857517;-60
2021/06/29 03:29:37;;;;;;;5.72;3.86;;;;;;;;;;349346;152;857552;-58
2021/06/29 03:30:39;;;;;;;5.46;4.05;;;;;;;;;;338119;155;857493;-59
2021/06/29 03:31:40;;;;;;;6.49;4.32;;;;;;;;;;347687;152;866776;-59
2021/06/29 03:32:42;;;;;;;6.50;4.29;;;;;;;;;;349382;154;859458;-59
2021/06/29 03:33:43;;;;;;;5.69;4.44;;;;;;;;;;346425;154;864860;-59
2021/06/29 03:34:45;;;;;;;9.01;4.06;;;;;;;;;;348903;151;857389;-59
2021/06/29 03:35:47;;;;;;;5.11;4.18;;;;;;;;;;348916;152;857898;-59
2021/06/29 03:36:48;;;;;;;9.36;4.12;;;;;;;;;;348974;153;859109;-60
2021/06/29 03:37:50;;;;;;;4.79;3.96;;;;;;;;;;349336;152;864996;-59
2021/06/29 03:50:27;;;;;;;5.13;3.49;;;;;;;21.24;62.39;99639.78;378768;142;881255;-62
2021/06/29 03:51:29;;;;;;;4.48;3.47;;;;;;;21.28;61.49;99643.94;367623;144;858828;-62
2021/06/29 03:52:31;;;;;;;10.26;3.86;;;;;;;21.43;61.11;99647.48;365872;144;859103;-62
2021/06/29 03:53:32;;;;;;;5.37;3.65;;;;;;;21.54;60.78;99646.84;372463;144;866550;-62
2021/06/29 03:54:34;;;;;;;3.93;3.51;;;;;;;21.65;60.39;99648.02;369303;144;857347;-64
2021/06/29 03:55:36;;;;;;;6.51;4.17;;;;;;;21.73;60.05;99651.05;367885;144;857373;-64
2021/06/29 03:56:38;;;;;;;5.85;4.53;;;;;;;21.79;60.26;99652.48;367055;144;859446;-64
2021/06/29 03:57:40;;;;;;;5.90;4.57;;;;;;;;;;369954;144;859634;-64
2021/06/29 03:58:42;;;;;;;5.98;4.72;;;;;;;;;;367163;144;857392;-64
2021/06/29 03:59:43;;;;;;;8.88;4.26;;;;;;;;;;366102;144;864620;-64
2021/06/29 04:00:45;;;;;;;8.91;4.37;;;;;;;;;;365648;147;857186;-64
2021/06/29 04:01:47;;;;;;;5.19;4.51;;;;;;;;;;364356;147;857689;-64
2021/06/29 04:02:48;;;;;;;5.46;4.29;;;;;;;;;;364005;147;865383;-64
2021/06/29 04:03:54;;;;;;;6.77;4.35;;;;;;;;;;363763;146;864620;-64
2021/06/29 04:04:55;;;;;;;5.30;4.34;;;;;;;;;;361358;147;858173;-64
2021/06/29 04:05:56;;;;;;;5.81;4.70;;;;;;;;;;362835;146;857296;-64
2021/06/29 04:07:01;;;;;;;5.87;4.51;;;;;;;;;;363352;146;866497;-63
2021/06/29 04:08:02;;;;;;;7.88;4.61;;;;;;;;;;361884;147;856304;-64
2021/06/29 04:09:04;;;;;;;5.08;4.52;;;;;;;;;;360447;147;856287;-65
2021/06/29 04:10:07;;;;;;;6.48;4.44;;;;;;;;;;362628;147;863670;-65
2021/06/29 04:11:08;;;;;;;7.01;4.85;;;;;;;;;;365591;147;856160;-65
2021/06/29 04:12:10;;;;;;;10.94;4.36;;;;;;;;;;363322;147;856468;-65
2021/06/29 04:13:12;;;;;;;6.07;4.19;;;;;;;;;;364767;147;856329;-65
2021/06/29 04:14:13;;;;;;;5.52;4.64;;;;;;;;;;359838;147;856291;-64
2021/06/29 04:15:15;;;;;;;6.39;4.32;;;;;;;;;;362603;147;856169;-65
2021/06/29 04:16:17;;;;;;;5.55;4.45;;;;;;;;;;363417;147;858206;-64
2021/06/29 04:17:19;;;;;;;9.07;4.67;;;;;;;;;;364469;146;857272;-64
2021/06/29 04:18:20;;;;;;;5.63;4.75;;;;;;;;;;364847;147;864899;-63
2021/06/29 04:19:22;;;;;;;6.49;4.61;;;;;;;;;;364282;147;857277;-62
2021/06/29 04:20:24;;;;;;;6.48;4.39;;;;;;;;;;364092;146;857265;-63
2021/06/29 04:21:26;;;;;;;5.06;4.41;;;;;;;;;;365904;146;857672;-63
2021/06/29 04:22:28;;;;;;;5.88;4.60;;;;;;;;;;365398;146;858220;-63
2021/06/29 04:23:29;;;;;;;6.75;4.83;;;;;;;;;;365414;147;860571;-63
2021/06/29 04:24:31;;;;;;;7.52;4.74;;;;;;;;;;364207;146;858756;-63
2021/06/29 04:25:33;;;;;;;5.97;4.83;;;;;;;;;;363135;147;865433;-63
2021/06/29 04:26:35;;;;;;;8.65;4.54;;;;;;;;;;363885;147;864995;-63
2021/06/29 04:27:36;;;;;;;5.56;4.46;;;;;;;;;;363799;146;856713;-63
2021/06/29 04:28:38;;;;;;;10.31;4.89;;;;;;;;;;358632;149;859248;-63
2021/06/29 04:29:40;;;;;;;5.19;4.34;;;;;;;;;;365910;147;857327;-63
2021/06/29 04:30:41;;;;;;;8.15;4.69;;;;;;;;;;363350;147;864940;-63
2021/06/29 04:31:43;;;;;;;7.75;4.84;;;;;;;;;;363285;146;865358;-63
2021/06/29 04:32:45;;;;;;;7.20;4.76;;;;;;;;;;366050;147;864727;-63
2021/06/29 04:33:46;;;;;;;6.64;4.79;;;;;;;;;;365986;147;858548;-63
2021/06/29 04:34:48;;;;;;;5.36;4.73;;;;;;;;;;364268;146;859522;-62
2021/06/29 04:35:49;;;;;;;7.49;4.96;;;;;;;;;;363307;147;865041;-63
2021/06/29 04:36:52;;;;;;;8.07;5.03;;;;;;;;;;362734;147;857287;-63
2021/06/29 04:37:53;;;;;;;8.17;4.96;;;;;;;;;;363374;147;859465;-63
2021/06/29 04:38:55;;;;;;;6.91;4.54;;;;;;;;;;364868;145;859412;-62
2021/06/29 04:39:57;;;;;;;8.32;4.57;;;;;;;;;;363658;145;864757;-63
2021/06/29 04:40:59;;;;;;;5.81;5.15;;;;;;;;;;362188;147;857781;-63
2021/06/29 04:42:00;;;;;;;8.91;4.71;;;;;;;;;;365323;146;857327;-63
2021/06/29 04:43:02;;;;;;;5.39;4.54;;;;;;;;;;360759;147;858494;-63
2021/06/29 04:44:04;;;;;;;5.66;4.86;;;;;;;;;;364338;147;864773;-63
2021/06/29 04:45:07;;;;;;;8.33;4.78;;;;;;;;;;364688;146;866321;-63
2021/06/29 04:46:09;;;;;;;4.63;4.09;;;;;;;;;;362105;147;857257;-63
2021/06/29 04:47:11;;;;;;;9.33;4.29;;;;;;;;;;356496;149;857956;-63
2021/06/29 04:48:12;;;;;;;6.78;4.66;;;;;;;;;;349862;149;860473;-63
2021/06/29 04:49:14;;;;;;;8.47;4.78;;;;;;;;;;350841;149;865612;-62
2021/06/29 04:50:16;;;;;;;6.89;4.52;;;;;;;;;;352013;149;857379;-65
2021/06/29 04:51:18;;;;;;;4.61;4.21;;;;;;;;;;363385;146;858663;-65
2021/06/29 04:52:19;;;;;;;6.29;4.76;;;;;;;;;;362651;147;865949;-65
2021/06/29 04:53:21;;;;;;;8.57;5.01;;;;;;;;;;365447;147;857327;-61
2021/06/29 04:54:42;;;;;;;8.91;4.38;;;;;;;;;;362535;147;858161;-63
2021/06/29 04:55:44;;;;;;;7.03;4.64;;;;;;;;;;357632;148;859698;-63
2021/06/29 04:56:46;;;;;;;8.41;5.21;;;;;;;;;;358038;149;859430;-66
2021/06/29 04:57:47;;;;;;;6.81;4.29;;;;;;;;;;358709;146;864864;-63
2021/06/29 04:58:52;;;;;;;8.48;4.90;;;;;;;;;;354878;149;857483;-65
2021/06/29 04:59:53;;;;;;;7.39;4.62;;;;;;;;;;353054;149;864835;-66
2021/06/29 05:00:55;;;;;;;8.01;4.99;;;;;;;;;;361399;147;859740;-62
2021/06/29 05:01:57;;;;;;;6.27;4.66;;;;;;;;;;363746;147;857311;-62
2021/06/29 05:02:58;;;;;;;5.86;4.36;;;;;;;;;;363773;147;857744;-66
2021/06/29 05:04:00;;;;;;;9.21;4.21;;;;;;;;;;361982;147;864819;-65
2021/06/29 05:05:02;;;;;;;6.31;4.35;;;;;;;;;;363908;145;857240;-64
2021/06/29 05:06:04;;;;;;;8.51;4.33;;;;;;;;;;362239;146;857251;-63
2021/06/29 05:07:05;;;;;;;6.71;4.27;;;;;;;;;;363395;146;858584;-64
2021/06/29 05:08:07;;;;;;;7.64;4.56;;;;;;;;;;359241;149;864854;-65
2021/06/29 05:09:09;;;;;;;7.74;4.07;;;;;;;;;;362105;144;865001;-66
2021/06/29 05:10:11;;;;;;;6.34;4.29;;;;;;;;;;364674;147;857365;-66
2021/06/29 05:11:13;;;;;;;7.66;4.31;;;;;;;;;;361636;147;857386;-62
2021/06/29 05:12:15;;;;;;;6.66;4.40;;;;;;;;;;363024;147;864870;-65
2021/06/29 05:13:16;;;;;;;4.94;4.34;;;;;;;;;;364227;146;864726;-62
2021/06/29 05:14:18;;;;;;;7.67;4.41;;;;;;;;;;364349;147;864683;-64
2021/06/29 05:15:19;;;;;;;5.64;4.29;;;;;;;;;;364532;144;857293;-65
2021/06/29 05:16:22;;;;;;;5.42;3.87;;;;;;;;;;361758;147;857200;-63
2021/06/29 05:17:23;;;;;;;6.59;4.14;;;;;;;;;;357697;149;857342;-66
2021/06/29 05:18:25;;;;;;;5.19;3.73;;;;;;;;;;357603;149;857197;-63
2021/06/29 05:19:29;;;;;;;7.94;4.11;;;;;;;;;;362398;147;858936;-61
2021/06/29 05:20:32;;;;;;;5.20;3.65;;;;;;;;;;363313;147;858930;-67
2021/06/29 05:21:34;;;;;;;6.33;3.95;;;;;;;;;;361226;145;858253;-63
2021/06/29 05:22:35;;;;;;;7.72;3.55;;;;;;;;;;353705;149;864920;-66
2021/06/29 05:23:37;;;;;;;7.18;4.06;;;;;;;;;;362575;146;856873;-62
2021/06/29 05:24:39;;;;;;;6.04;3.88;;;;;;;;;;354573;149;857338;-62
2021/06/29 05:25:40;;;;;;;4.46;4.01;;;;;;;;;;363947;147;858395;-65
2021/06/29 05:26:42;;;;;;;7.12;4.14;;;;;;;;;;361335;147;858092;-63
2021/06/29 05:27:43;;;;;;;6.31;3.89;;;;;;;;;;360806;146;864785;-64
2021/06/29 05:28:45;;;;;;;4.36;3.66;;;;;;;;;;362870;147;857213;-66
2021/06/29 05:29:47;;;;;;;6.32;4.00;;;;;;;;;;362793;147;857721;-65
2021/06/29 05:30:49;;;;;;;7.17;3.67;;;;;;;;;;362116;146;865840;-66
2021/06/29 05:31:51;;;;;;;5.01;3.74;;;;;;;;;;362960;147;858270;-63
2021/06/29 05:32:52;;;;;;;5.89;3.97;;;;;;;;;;362634;147;864953;-67
2021/06/29 05:33:54;;;;;;;4.12;3.69;;;;;;;;;;363207;147;864874;-67
2021/06/29 05:34:55;;;;;;;4.36;3.72;;;;;;;;;;364500;147;857310;-65
2021/06/29 05:35:57;;;;;;;4.42;3.66;;;;;;;;;;356109;148;856366;-66
2021/06/29 05:36:59;;;;;;;6.55;4.04;;;;;;;;;;357681;148;865253;-65
2021/06/29 05:38:00;;;;;;;4.94;3.40;;;;;;;;;;362959;146;864878;-67
2021/06/29 05:39:03;;;;;;;5.60;3.71;;;;;;;;;;364028;144;866475;-66
2021/06/29 05:40:05;;;;;;;4.95;3.90;;;;;;;;;;360143;147;867013;-65
2021/06/29 05:41:07;;;;;;;4.84;3.59;;;;;;;;;;358119;147;864693;-64
2021/06/29 05:42:09;;;;;;;6.37;3.94;;;;;;;;;;363557;147;857743;-67
2021/06/29 05:43:11;;;;;;;5.87;3.71;;;;;;;;;;360125;147;857375;-63
2021/06/29 05:44:12;;;;;;;7.55;3.69;;;;;;;;;;356657;148;858951;-67
2021/06/29 05:45:15;;;;;;;5.29;3.64;;;;;;;;;;357408;149;858181;-66
2021/06/29 05:46:17;;;;;;;6.89;4.08;;;;;;;;;;364475;147;866058;-67
2021/06/29 05:47:22;;;;;;;5.00;3.56;;;;;;;;;;363835;145;857217;-67
2021/06/29 05:48:27;;;;;;;3.77;3.37;;;;;;;;;;362816;147;857861;-68
2021/06/29 05:49:27;;;;;;;4.13;3.82;;;;;;;;;;363139;147;857340;-65
2021/06/29 05:50:30;;;;;;;5.47;3.85;;;;;;;;;;359225;147;858975;-65
2021/06/29 05:51:31;;;;;;;5.58;3.50;;;;;;;;;;357096;150;865687;-66
2021/06/29 05:52:33;;;;;;;5.79;3.54;;;;;;;;;;358452;148;859305;-67
2021/06/29 05:53:35;;;;;;;5.85;3.52;;;;;;;;;;354313;152;857644;-66
2021/06/29 05:54:36;;;;;;;5.41;3.56;;;;;;;;;;362917;145;865764;-66
2021/06/29 05:55:38;;;;;;;5.34;3.58;;;;;;;;;;363573;147;865594;-67
2021/06/29 05:56:41;;;;;;;4.37;3.53;;;;;;;;;;363044;148;857355;-66
2021/06/29 05:57:42;;;;;;;6.78;3.73;;;;;;;;;;359014;146;864836;-67
2021/06/29 05:58:44;;;;;;;3.34;3.01;;;;;;;;;;362406;147;864993;-67
2021/06/29 05:59:45;;;;;;;4.85;3.35;;;;;;;;;;355617;151;857182;-65
2021/06/29 06:00:47;;;;;;;4.82;3.47;;;;;;;;;;355560;149;860271;-67
2021/06/29 06:01:49;;;;;;;5.45;3.71;;;;;;;;;;355071;149;858985;-66
2021/06/29 06:02:50;;;;;;;5.48;3.44;;;;;;;;;;355649;149;857358;-67
2021/06/29 06:03:52;;;;;;;4.39;3.90;;;;;;;;;;356220;151;857360;-64
2021/06/29 06:04:53;;;;;;;6.78;3.78;;;;;;;;;;351383;150;866641;-63
2021/06/29 06:05:55;;;;;;;5.81;3.46;;;;;;;;;;355132;150;857177;-63
2021/06/29 06:06:57;;;;;;;6.44;3.97;;;;;;;;;;356761;151;858796;-65
2021/06/29 06:07:59;;;;;;;5.07;3.45;;;;;;;;;;354528;149;858159;-63
2021/06/29 06:09:01;;;;;;;7.52;3.70;;;;;;;;;;353632;149;857297;-60
2021/06/29 06:10:03;;;;;;;7.74;3.84;;;;;;;;;;355322;151;857356;-60
2021/06/29 06:11:04;;;;;;;6.71;3.70;;;;;;;;;;351259;151;866105;-60
2021/06/29 06:12:06;;;;;;;4.11;3.48;;;;;;;;;;352750;149;857403;-60
2021/06/29 06:13:08;;;;;;;16.86;5.93;;;;;;;;;;355241;151;860047;-61
2021/06/29 06:14:09;;;;;;;6.90;4.42;;;;;;;;;;355773;151;859445;-61
2021/06/29 06:15:11;;;;;;;7.59;4.47;;;;;;;;;;354874;149;857400;-60
2021/06/29 06:16:13;;;;;;;6.59;3.66;;;;;;;;;;355119;149;857328;-61
2021/06/29 06:17:15;;;;;;;8.06;3.54;;;;;;;;;;352798;151;857355;-60